createdAt,value
2017-07-18T00:00:13.855Z,0
2017-07-18T00:01:15.255Z,0
2017-07-18T00:02:16.655Z,0
2017-07-18T00:03:18.053Z,0
2017-07-18T00:04:19.452Z,0
2017-07-18T00:05:20.852Z,0
2017-07-18T00:06:22.254Z,0
2017-07-18T00:07:23.653Z,0
2017-07-18T00:08:25.053Z,0
2017-07-18T00:09:26.455Z,0
2017-07-18T00:10:27.857Z,0
2017-07-18T00:11:29.254Z,0
2017-07-18T00:12:30.653Z,0
2017-07-18T00:13:32.051Z,0
2017-07-18T00:14:33.452Z,0
2017-07-18T00:15:34.854Z,0
2017-07-18T00:16:36.260Z,0
2017-07-18T00:17:37.653Z,0
2017-07-18T00:18:39.049Z,0
2017-07-18T00:19:40.447Z,0
2017-07-18T00:20:41.847Z,0
2017-07-18T00:21:43.246Z,0
2017-07-18T00:22:44.645Z,0
2017-07-18T00:23:46.043Z,0
2017-07-18T00:24:47.443Z,0
2017-07-18T00:25:48.840Z,0
2017-07-18T00:26:50.237Z,0
2017-07-18T00:27:51.637Z,0
2017-07-18T00:28:53.040Z,0
2017-07-18T00:29:54.440Z,0
2017-07-18T00:30:55.841Z,0
2017-07-18T00:31:57.240Z,0
2017-07-18T00:32:58.638Z,0
2017-07-18T00:34:00.036Z,0
2017-07-18T00:35:01.435Z,0
2017-07-18T00:36:02.839Z,0
2017-07-18T00:37:04.240Z,0
2017-07-18T00:38:05.642Z,0
2017-07-18T00:39:07.035Z,0
2017-07-18T00:40:08.437Z,0
2017-07-18T00:41:09.835Z,0
2017-07-18T00:42:11.236Z,0
2017-07-18T00:43:12.633Z,0
2017-07-18T00:44:14.041Z,0
2017-07-18T00:45:15.434Z,0
2017-07-18T00:46:16.831Z,0
2017-07-18T00:47:18.232Z,0
2017-07-18T00:48:19.629Z,0
2017-07-18T00:49:21.026Z,0
2017-07-18T00:50:22.433Z,0
2017-07-18T00:51:23.836Z,0
2017-07-18T00:52:25.239Z,0
2017-07-18T00:53:26.636Z,0
2017-07-18T00:54:28.040Z,0
2017-07-18T00:55:29.446Z,0
2017-07-18T00:56:30.840Z,0
2017-07-18T00:57:32.241Z,0
2017-07-18T00:58:33.666Z,0
2017-07-18T00:59:35.042Z,0
2017-07-18T01:00:36.446Z,0
2017-07-18T01:01:37.837Z,0
2017-07-18T01:02:39.280Z,0
2017-07-18T01:03:40.686Z,0
2017-07-18T01:04:42.085Z,0
2017-07-18T01:05:43.479Z,0
2017-07-18T01:06:44.881Z,0
2017-07-18T01:07:46.277Z,0
2017-07-18T01:08:47.676Z,0
2017-07-18T01:09:49.073Z,0
2017-07-18T01:10:50.474Z,0
2017-07-18T01:11:51.874Z,0
2017-07-18T01:12:53.276Z,0
2017-07-18T01:13:54.674Z,0
2017-07-18T01:14:56.072Z,0
2017-07-18T01:15:57.471Z,0
2017-07-18T01:16:58.879Z,0
2017-07-18T01:18:00.269Z,0
2017-07-18T01:19:01.666Z,0
2017-07-18T01:20:03.070Z,0
2017-07-18T01:21:04.470Z,0
2017-07-18T01:22:05.869Z,0
2017-07-18T01:23:07.265Z,0
2017-07-18T01:24:08.664Z,0
2017-07-18T01:25:10.063Z,0
2017-07-18T01:26:11.465Z,0
2017-07-18T01:27:12.864Z,0
2017-07-18T01:28:14.264Z,0
2017-07-18T01:29:15.661Z,0
2017-07-18T01:30:17.060Z,0
2017-07-18T01:31:18.456Z,0
2017-07-18T01:32:19.857Z,0
2017-07-18T01:33:21.257Z,0
2017-07-18T01:34:22.658Z,0
2017-07-18T01:35:24.059Z,0
2017-07-18T01:36:25.459Z,0
2017-07-18T01:37:26.857Z,0
2017-07-18T01:38:28.258Z,0
2017-07-18T01:39:29.656Z,0
2017-07-18T01:40:31.057Z,0
2017-07-18T01:41:32.460Z,0
2017-07-18T01:42:33.859Z,0
2017-07-18T01:43:35.254Z,0
2017-07-18T01:44:36.659Z,0
2017-07-18T01:45:38.071Z,0
2017-07-18T01:46:39.465Z,0
2017-07-18T01:47:40.874Z,0
2017-07-18T01:48:42.274Z,0
2017-07-18T01:49:43.670Z,0
2017-07-18T01:50:45.071Z,0
2017-07-18T01:51:46.466Z,0
2017-07-18T01:52:47.865Z,0
2017-07-18T01:53:49.265Z,0
2017-07-18T01:54:50.664Z,0
2017-07-18T01:55:52.063Z,0
2017-07-18T01:56:53.466Z,0
2017-07-18T01:57:54.863Z,0
2017-07-18T01:58:56.261Z,0
2017-07-18T01:59:57.659Z,0
2017-07-18T02:00:59.061Z,0
2017-07-18T02:02:00.460Z,0
2017-07-18T02:03:01.861Z,0
2017-07-18T02:04:03.265Z,0
2017-07-18T02:05:04.667Z,0
2017-07-18T02:06:06.066Z,0
2017-07-18T02:07:07.460Z,0
2017-07-18T02:08:08.864Z,0
2017-07-18T02:09:10.258Z,0
2017-07-18T02:10:11.658Z,0
2017-07-18T02:11:13.057Z,0
2017-07-18T02:12:14.455Z,0
2017-07-18T02:13:15.849Z,0
2017-07-18T02:14:17.249Z,0
2017-07-18T02:15:18.646Z,0
2017-07-18T02:16:20.046Z,0
2017-07-18T02:17:21.447Z,0
2017-07-18T02:18:22.845Z,0
2017-07-18T02:19:24.243Z,0
2017-07-18T02:20:25.643Z,0
2017-07-18T02:21:27.048Z,0
2017-07-18T02:22:28.440Z,0
2017-07-18T02:23:29.838Z,0
2017-07-18T02:24:31.238Z,0
2017-07-18T02:25:32.640Z,0
2017-07-18T02:26:34.037Z,0
2017-07-18T02:27:35.433Z,0
2017-07-18T02:28:36.834Z,0
2017-07-18T02:29:38.233Z,0
2017-07-18T02:30:39.630Z,0
2017-07-18T02:31:41.035Z,0
2017-07-18T02:32:42.434Z,0
2017-07-18T02:33:43.870Z,0
2017-07-18T02:34:45.270Z,0
2017-07-18T02:35:46.667Z,0
2017-07-18T02:36:48.065Z,0
2017-07-18T02:37:49.463Z,0
2017-07-18T02:38:50.863Z,0
2017-07-18T02:39:52.265Z,0
2017-07-18T02:40:53.664Z,0
2017-07-18T02:41:55.055Z,0
2017-07-18T02:42:56.456Z,0
2017-07-18T02:43:57.854Z,0
2017-07-18T02:44:59.255Z,0
2017-07-18T02:46:00.653Z,0
2017-07-18T02:47:02.053Z,0
2017-07-18T02:48:03.456Z,0
2017-07-18T02:49:04.850Z,0
2017-07-18T02:50:06.249Z,0
2017-07-18T02:51:07.648Z,0
2017-07-18T02:52:09.047Z,0
2017-07-18T02:53:10.445Z,0
2017-07-18T02:54:11.848Z,0
2017-07-18T02:55:13.246Z,0
2017-07-18T02:56:14.642Z,0
2017-07-18T02:57:16.042Z,0
2017-07-18T02:58:17.447Z,0
2017-07-18T02:59:18.847Z,0
2017-07-18T03:00:20.249Z,0
2017-07-18T03:01:21.647Z,0
2017-07-18T03:02:23.047Z,0
2017-07-18T03:03:24.447Z,0
2017-07-18T03:04:25.843Z,0
2017-07-18T03:05:27.238Z,0
2017-07-18T03:06:28.640Z,0
2017-07-18T03:07:30.035Z,0
2017-07-18T03:08:31.437Z,0
2017-07-18T03:09:32.833Z,0
2017-07-18T03:10:34.241Z,0
2017-07-18T03:11:35.640Z,0
2017-07-18T03:12:37.041Z,0
2017-07-18T03:13:38.448Z,0
2017-07-18T03:14:39.851Z,0
2017-07-18T03:15:41.249Z,0
2017-07-18T03:16:42.649Z,0
2017-07-18T03:17:44.045Z,0
2017-07-18T03:18:45.448Z,0
2017-07-18T03:19:46.846Z,0
2017-07-18T03:20:48.249Z,0
2017-07-18T03:21:49.648Z,0
2017-07-18T03:22:51.050Z,0
2017-07-18T03:23:52.443Z,0
2017-07-18T03:24:53.845Z,0
2017-07-18T03:25:55.241Z,0
2017-07-18T03:26:56.641Z,0
2017-07-18T03:27:58.042Z,0
2017-07-18T03:28:59.445Z,0
2017-07-18T03:30:00.844Z,0
2017-07-18T03:31:02.254Z,0
2017-07-18T03:32:03.656Z,0
2017-07-18T03:33:05.042Z,0
2017-07-18T03:34:06.442Z,0
2017-07-18T03:35:07.839Z,0
2017-07-18T03:36:09.241Z,0
2017-07-18T03:37:10.639Z,0
2017-07-18T03:38:12.043Z,0
2017-07-18T03:39:13.437Z,0
2017-07-18T03:40:14.839Z,0
2017-07-18T03:41:16.233Z,0
2017-07-18T03:42:17.635Z,0
2017-07-18T03:43:19.038Z,0
2017-07-18T03:44:20.441Z,0
2017-07-18T03:45:21.835Z,0
2017-07-18T03:46:23.236Z,0
2017-07-18T03:47:24.634Z,0
2017-07-18T03:48:26.036Z,0
2017-07-18T03:49:27.434Z,5
2017-07-18T03:50:28.838Z,5
2017-07-18T03:51:30.238Z,5
2017-07-18T03:52:31.643Z,5
2017-07-18T03:53:33.038Z,5
2017-07-18T03:54:34.452Z,5
2017-07-18T03:55:35.840Z,5
2017-07-18T03:56:37.245Z,5
2017-07-18T03:57:38.641Z,5
2017-07-18T03:58:40.047Z,5
2017-07-18T03:59:41.447Z,5
2017-07-18T04:00:42.843Z,5
2017-07-18T04:01:44.246Z,5
2017-07-18T04:02:45.653Z,5
2017-07-18T04:03:47.054Z,5
2017-07-18T04:04:48.459Z,11
2017-07-18T04:05:49.877Z,11
2017-07-18T04:06:51.273Z,11
2017-07-18T04:07:52.673Z,11
2017-07-18T04:08:54.079Z,11
2017-07-18T04:09:55.478Z,11
2017-07-18T04:10:56.882Z,11
2017-07-18T04:11:58.290Z,11
2017-07-18T04:12:59.694Z,11
2017-07-18T04:14:01.096Z,11
2017-07-18T04:15:02.498Z,11
2017-07-18T04:16:03.898Z,11
2017-07-18T04:17:05.299Z,16
2017-07-18T04:18:06.702Z,16
2017-07-18T04:19:08.103Z,16
2017-07-18T04:20:09.506Z,16
2017-07-18T04:21:10.904Z,16
2017-07-18T04:22:12.309Z,16
2017-07-18T04:23:13.713Z,16
2017-07-18T04:24:15.117Z,22
2017-07-18T04:25:16.518Z,22
2017-07-18T04:26:17.920Z,22
2017-07-18T04:27:19.326Z,22
2017-07-18T04:28:20.744Z,22
2017-07-18T04:29:22.127Z,22
2017-07-18T04:30:23.528Z,28
2017-07-18T04:31:24.928Z,28
2017-07-18T04:32:26.330Z,28
2017-07-18T04:33:27.736Z,28
2017-07-18T04:34:29.141Z,33
2017-07-18T04:35:30.540Z,33
2017-07-18T04:36:31.948Z,33
2017-07-18T04:37:33.341Z,39
2017-07-18T04:38:34.741Z,39
2017-07-18T04:39:36.145Z,39
2017-07-18T04:40:37.551Z,39
2017-07-18T04:41:38.959Z,39
2017-07-18T04:42:40.362Z,45
2017-07-18T04:43:41.762Z,45
2017-07-18T04:44:43.163Z,45
2017-07-18T04:45:44.561Z,45
2017-07-18T04:46:45.965Z,45
2017-07-18T04:47:47.367Z,45
2017-07-18T04:48:48.779Z,45
2017-07-18T04:49:50.174Z,45
2017-07-18T04:50:51.584Z,45
2017-07-18T04:51:52.988Z,50
2017-07-18T04:52:54.390Z,50
2017-07-18T04:53:55.793Z,50
2017-07-18T04:54:57.197Z,50
2017-07-18T04:55:58.596Z,50
2017-07-18T04:56:59.999Z,50
2017-07-18T04:58:01.394Z,50
2017-07-18T04:59:02.802Z,50
2017-07-18T05:00:04.204Z,50
2017-07-18T05:01:05.605Z,50
2017-07-18T05:02:07.026Z,50
2017-07-18T05:03:08.417Z,50
2017-07-18T05:04:09.819Z,50
2017-07-18T05:05:11.215Z,50
2017-07-18T05:06:12.618Z,50
2017-07-18T05:07:14.018Z,50
2017-07-18T05:08:15.425Z,50
2017-07-18T05:09:16.820Z,50
2017-07-18T05:10:18.238Z,50
2017-07-18T05:11:19.629Z,50
2017-07-18T05:12:21.032Z,50
2017-07-18T05:13:22.437Z,50
2017-07-18T05:14:23.843Z,50
2017-07-18T05:15:25.247Z,50
2017-07-18T05:16:26.652Z,50
2017-07-18T05:17:28.054Z,50
2017-07-18T05:18:29.460Z,50
2017-07-18T05:19:30.861Z,50
2017-07-18T05:20:32.265Z,50
2017-07-18T05:21:33.669Z,56
2017-07-18T05:22:35.072Z,56
2017-07-18T05:23:36.737Z,56
2017-07-18T05:24:38.159Z,56
2017-07-18T05:25:39.614Z,56
2017-07-18T05:26:41.024Z,50
2017-07-18T05:27:42.428Z,56
2017-07-18T05:28:43.836Z,56
2017-07-18T05:29:45.246Z,56
2017-07-18T05:30:46.651Z,61
2017-07-18T05:31:48.054Z,61
2017-07-18T05:32:49.456Z,61
2017-07-18T05:33:50.856Z,61
2017-07-18T05:34:52.262Z,67
2017-07-18T05:35:53.670Z,67
2017-07-18T05:36:55.073Z,67
2017-07-18T05:37:56.479Z,67
2017-07-18T05:38:57.883Z,67
2017-07-18T05:39:59.282Z,73
2017-07-18T05:41:00.688Z,73
2017-07-18T05:42:02.089Z,73
2017-07-18T05:43:03.495Z,78
2017-07-18T05:44:04.899Z,84
2017-07-18T05:45:06.313Z,84
2017-07-18T05:46:07.725Z,84
2017-07-18T05:47:09.126Z,84
2017-07-18T05:48:10.525Z,84
2017-07-18T05:49:11.930Z,84
2017-07-18T05:50:13.333Z,84
2017-07-18T05:51:14.735Z,84
2017-07-18T05:52:16.142Z,84
2017-07-18T05:53:17.639Z,84
2017-07-18T05:54:19.039Z,78
2017-07-18T05:55:20.442Z,78
2017-07-18T05:56:21.846Z,78
2017-07-18T05:57:23.251Z,73
2017-07-18T05:58:24.654Z,73
2017-07-18T05:59:26.067Z,73
2017-07-18T06:00:27.476Z,73
2017-07-18T06:01:28.875Z,73
2017-07-18T06:02:30.279Z,73
2017-07-18T06:03:31.683Z,73
2017-07-18T06:04:33.091Z,73
2017-07-18T06:05:34.489Z,73
2017-07-18T06:06:35.895Z,73
2017-07-18T06:07:37.300Z,73
2017-07-18T06:08:38.703Z,73
2017-07-18T06:09:40.106Z,73
2017-07-18T06:10:41.515Z,67
2017-07-18T06:11:42.908Z,67
2017-07-18T06:12:44.318Z,67
2017-07-18T06:13:45.740Z,67
2017-07-18T06:14:47.142Z,67
2017-07-18T06:15:48.545Z,67
2017-07-18T06:16:49.947Z,61
2017-07-18T06:17:51.357Z,67
2017-07-18T06:18:52.777Z,56
2017-07-18T06:19:54.182Z,61
2017-07-18T06:20:55.595Z,61
2017-07-18T06:21:56.999Z,56
2017-07-18T06:22:58.404Z,61
2017-07-18T06:23:59.804Z,61
2017-07-18T06:25:01.210Z,56
2017-07-18T06:26:02.610Z,61
2017-07-18T06:27:04.016Z,61
2017-07-18T06:28:05.421Z,61
2017-07-18T06:29:06.827Z,61
2017-07-18T06:30:08.231Z,61
2017-07-18T06:31:09.633Z,67
2017-07-18T06:32:11.036Z,56
2017-07-18T06:33:12.456Z,56
2017-07-18T06:34:13.853Z,61
2017-07-18T06:35:15.259Z,56
2017-07-18T06:36:16.671Z,56
2017-07-18T06:37:18.070Z,61
2017-07-18T06:38:19.475Z,61
2017-07-18T06:39:20.878Z,67
2017-07-18T06:40:22.282Z,67
2017-07-18T06:41:23.689Z,67
2017-07-18T06:42:25.093Z,67
2017-07-18T06:43:26.502Z,73
2017-07-18T06:44:27.905Z,73
2017-07-18T06:45:29.317Z,73
2017-07-18T06:46:30.709Z,73
2017-07-18T06:47:32.116Z,73
2017-07-18T06:48:33.530Z,73
2017-07-18T06:49:34.934Z,73
2017-07-18T06:50:36.341Z,73
2017-07-18T06:51:37.746Z,73
2017-07-18T06:52:39.150Z,73
2017-07-18T06:53:40.553Z,73
2017-07-18T06:54:41.966Z,73
2017-07-18T06:55:43.368Z,73
2017-07-18T06:56:44.772Z,73
2017-07-18T06:57:46.185Z,73
2017-07-18T06:58:47.583Z,73
2017-07-18T06:59:49.045Z,73
2017-07-18T07:00:50.454Z,73
2017-07-18T07:01:51.858Z,73
2017-07-18T07:02:53.260Z,78
2017-07-18T07:03:54.665Z,78
2017-07-18T07:04:56.073Z,78
2017-07-18T07:05:57.472Z,78
2017-07-18T07:06:58.885Z,78
2017-07-18T07:08:00.281Z,78
2017-07-18T07:09:01.743Z,78
2017-07-18T07:10:03.165Z,78
2017-07-18T07:11:04.564Z,84
2017-07-18T07:12:06.081Z,84
2017-07-18T07:13:07.482Z,84
2017-07-18T07:14:08.895Z,84
2017-07-18T07:15:10.302Z,84
2017-07-18T07:16:11.711Z,84
2017-07-18T07:17:13.123Z,90
2017-07-18T07:18:14.537Z,90
2017-07-18T07:19:15.943Z,90
2017-07-18T07:20:17.347Z,90
2017-07-18T07:21:18.752Z,90
2017-07-18T07:22:20.153Z,90
2017-07-18T07:23:21.568Z,90
2017-07-18T07:24:22.979Z,95
2017-07-18T07:25:24.384Z,95
2017-07-18T07:26:25.793Z,95
2017-07-18T07:27:27.197Z,95
2017-07-18T07:28:28.620Z,95
2017-07-18T07:29:30.025Z,95
2017-07-18T07:30:31.429Z,95
2017-07-18T07:31:32.834Z,95
2017-07-18T07:32:34.248Z,101
2017-07-18T07:33:35.660Z,101
2017-07-18T07:34:37.065Z,101
2017-07-18T07:35:38.469Z,101
2017-07-18T07:36:39.875Z,101
2017-07-18T07:37:41.322Z,101
2017-07-18T07:38:42.730Z,101
2017-07-18T07:39:44.175Z,106
2017-07-18T07:40:45.706Z,106
2017-07-18T07:41:47.109Z,106
2017-07-18T07:42:48.515Z,106
2017-07-18T07:43:49.924Z,106
2017-07-18T07:44:51.329Z,106
2017-07-18T07:45:52.737Z,106
2017-07-18T07:46:54.144Z,112
2017-07-18T07:47:55.602Z,112
2017-07-18T07:48:57.004Z,112
2017-07-18T07:49:58.420Z,112
2017-07-18T07:50:59.827Z,112
2017-07-18T07:52:01.247Z,112
2017-07-18T07:53:02.648Z,112
2017-07-18T07:54:04.061Z,118
2017-07-18T07:55:05.471Z,118
2017-07-18T07:56:06.873Z,118
2017-07-18T07:57:08.289Z,118
2017-07-18T07:58:09.688Z,118
2017-07-18T07:59:11.090Z,118
2017-07-18T08:00:12.498Z,118
2017-07-18T08:01:13.908Z,123
2017-07-18T08:02:15.317Z,123
2017-07-18T08:03:16.724Z,123
2017-07-18T08:04:18.129Z,123
2017-07-18T08:05:19.535Z,123
2017-07-18T08:06:20.944Z,129
2017-07-18T08:07:22.350Z,129
2017-07-18T08:08:23.765Z,129
2017-07-18T08:09:25.178Z,129
2017-07-18T08:10:26.579Z,129
2017-07-18T08:11:27.979Z,135
2017-07-18T08:12:29.916Z,135
2017-07-18T08:13:31.325Z,135
2017-07-18T08:14:32.736Z,135
2017-07-18T08:15:34.170Z,135
2017-07-18T08:16:35.575Z,135
2017-07-18T08:17:36.988Z,135
2017-07-18T08:18:38.409Z,135
2017-07-18T08:19:39.812Z,135
2017-07-18T08:20:41.233Z,135
2017-07-18T08:21:42.634Z,135
2017-07-18T08:22:44.040Z,140
2017-07-18T08:23:45.449Z,140
2017-07-18T08:24:46.857Z,140
2017-07-18T08:25:48.264Z,140
2017-07-18T08:26:49.714Z,146
2017-07-18T08:27:51.119Z,146
2017-07-18T08:28:52.527Z,146
2017-07-18T08:29:53.946Z,146
2017-07-18T08:30:55.386Z,146
2017-07-18T08:31:56.762Z,151
2017-07-18T08:32:58.168Z,151
2017-07-18T08:33:59.579Z,151
2017-07-18T08:35:00.988Z,151
2017-07-18T08:36:02.403Z,157
2017-07-18T08:37:03.815Z,157
2017-07-18T08:38:05.235Z,157
2017-07-18T08:39:06.640Z,163
2017-07-18T08:40:08.047Z,157
2017-07-18T08:41:09.456Z,157
2017-07-18T08:42:10.863Z,163
2017-07-18T08:43:12.273Z,163
2017-07-18T08:44:13.681Z,163
2017-07-18T08:45:15.091Z,168
2017-07-18T08:46:16.504Z,168
2017-07-18T08:47:17.913Z,163
2017-07-18T08:48:19.319Z,168
2017-07-18T08:49:20.728Z,168
2017-07-18T08:50:22.139Z,168
2017-07-18T08:51:23.547Z,168
2017-07-18T08:52:24.957Z,174
2017-07-18T08:53:26.414Z,174
2017-07-18T08:54:27.840Z,174
2017-07-18T08:55:29.258Z,174
2017-07-18T08:56:30.690Z,174
2017-07-18T08:57:32.076Z,174
2017-07-18T08:58:33.489Z,174
2017-07-18T08:59:34.898Z,174
2017-07-18T09:00:36.342Z,174
2017-07-18T09:01:37.752Z,180
2017-07-18T09:02:39.161Z,180
2017-07-18T09:03:40.569Z,180
2017-07-18T09:04:41.976Z,185
2017-07-18T09:05:43.389Z,185
2017-07-18T09:06:44.802Z,191
2017-07-18T09:07:46.211Z,191
2017-07-18T09:08:47.616Z,191
2017-07-18T09:09:49.030Z,196
2017-07-18T09:10:50.438Z,202
2017-07-18T09:11:51.845Z,202
2017-07-18T09:12:53.255Z,202
2017-07-18T09:13:54.668Z,202
2017-07-18T09:14:56.079Z,202
2017-07-18T09:15:57.485Z,208
2017-07-18T09:16:58.893Z,208
2017-07-18T09:18:00.302Z,213
2017-07-18T09:19:01.713Z,213
2017-07-18T09:20:03.125Z,213
2017-07-18T09:21:04.535Z,219
2017-07-18T09:22:05.940Z,219
2017-07-18T09:23:07.348Z,219
2017-07-18T09:24:08.754Z,219
2017-07-18T09:25:10.158Z,230
2017-07-18T09:26:11.569Z,225
2017-07-18T09:27:12.985Z,230
2017-07-18T09:28:14.578Z,225
2017-07-18T09:29:15.988Z,225
2017-07-18T09:30:17.395Z,230
2017-07-18T09:31:18.803Z,236
2017-07-18T09:32:20.212Z,236
2017-07-18T09:33:21.624Z,236
2017-07-18T09:34:23.033Z,236
2017-07-18T09:35:24.445Z,236
2017-07-18T09:36:25.851Z,236
2017-07-18T09:37:27.259Z,241
2017-07-18T09:38:28.712Z,247
2017-07-18T09:39:30.120Z,253
2017-07-18T09:40:31.528Z,253
2017-07-18T09:41:32.940Z,253
2017-07-18T09:42:34.350Z,253
2017-07-18T09:43:35.772Z,258
2017-07-18T09:44:37.176Z,264
2017-07-18T09:45:38.586Z,264
2017-07-18T09:46:40.002Z,270
2017-07-18T09:47:41.413Z,270
2017-07-18T09:48:42.826Z,270
2017-07-18T09:49:44.233Z,270
2017-07-18T09:50:45.642Z,270
2017-07-18T09:51:47.050Z,275
2017-07-18T09:52:48.474Z,286
2017-07-18T09:53:49.886Z,281
2017-07-18T09:54:51.287Z,281
2017-07-18T09:55:52.707Z,281
2017-07-18T09:56:54.116Z,286
2017-07-18T09:57:55.526Z,292
2017-07-18T09:58:56.935Z,292
2017-07-18T09:59:58.344Z,292
2017-07-18T10:00:59.754Z,292
2017-07-18T10:02:01.157Z,298
2017-07-18T10:03:02.578Z,303
2017-07-18T10:04:04.004Z,303
2017-07-18T10:05:05.413Z,303
2017-07-18T10:06:06.824Z,309
2017-07-18T10:07:08.280Z,315
2017-07-18T10:08:09.750Z,315
2017-07-18T10:09:11.160Z,315
2017-07-18T10:10:12.569Z,315
2017-07-18T10:11:14.013Z,320
2017-07-18T10:12:15.437Z,320
2017-07-18T10:13:16.838Z,320
2017-07-18T10:14:18.255Z,326
2017-07-18T10:15:19.666Z,326
2017-07-18T10:16:21.074Z,331
2017-07-18T10:17:22.488Z,337
2017-07-18T10:18:23.896Z,337
2017-07-18T10:19:25.317Z,337
2017-07-18T10:20:26.720Z,348
2017-07-18T10:21:28.126Z,348
2017-07-18T10:22:29.538Z,354
2017-07-18T10:23:30.956Z,360
2017-07-18T10:24:32.375Z,365
2017-07-18T10:25:33.780Z,365
2017-07-18T10:26:35.186Z,371
2017-07-18T10:27:36.598Z,376
2017-07-18T10:28:38.007Z,382
2017-07-18T10:29:39.419Z,388
2017-07-18T10:30:40.848Z,388
2017-07-18T10:31:42.247Z,393
2017-07-18T10:32:43.660Z,399
2017-07-18T10:33:45.071Z,405
2017-07-18T10:34:46.478Z,410
2017-07-18T10:35:47.890Z,421
2017-07-18T10:36:49.299Z,421
2017-07-18T10:37:50.715Z,427
2017-07-18T10:38:52.128Z,433
2017-07-18T10:39:53.547Z,433
2017-07-18T10:40:54.959Z,444
2017-07-18T10:41:56.368Z,450
2017-07-18T10:42:57.779Z,450
2017-07-18T10:43:59.192Z,461
2017-07-18T10:45:00.606Z,472
2017-07-18T10:46:02.019Z,478
2017-07-18T10:47:03.435Z,489
2017-07-18T10:48:04.858Z,495
2017-07-18T10:49:06.260Z,506
2017-07-18T10:50:07.687Z,517
2017-07-18T10:51:09.097Z,528
2017-07-18T10:52:10.509Z,534
2017-07-18T10:53:11.923Z,540
2017-07-18T10:54:13.336Z,556
2017-07-18T10:55:14.748Z,568
2017-07-18T10:56:16.158Z,579
2017-07-18T10:57:17.572Z,590
2017-07-18T10:58:18.982Z,607
2017-07-18T10:59:20.397Z,624
2017-07-18T11:00:21.813Z,641
2017-07-18T11:01:23.228Z,658
2017-07-18T11:02:24.642Z,680
2017-07-18T11:03:26.056Z,703
2017-07-18T11:04:27.467Z,731
2017-07-18T11:05:28.881Z,753
2017-07-18T11:06:30.407Z,776
2017-07-18T11:07:31.822Z,810
2017-07-18T11:08:33.238Z,838
2017-07-18T11:09:34.652Z,883
2017-07-18T11:10:36.062Z,922
2017-07-18T11:11:37.480Z,973
2017-07-18T11:12:38.892Z,1035
2017-07-18T11:13:40.310Z,1113
2017-07-18T11:14:41.726Z,1220
2017-07-18T11:15:43.143Z,1327
2017-07-18T11:16:44.560Z,1440
2017-07-18T11:17:45.974Z,1558
2017-07-18T11:18:47.390Z,1670
2017-07-18T11:19:48.808Z,1755
2017-07-18T11:20:50.223Z,1794
2017-07-18T11:21:51.640Z,1794
2017-07-18T11:22:53.061Z,1788
2017-07-18T11:23:54.481Z,1783
2017-07-18T11:24:55.894Z,1777
2017-07-18T11:25:57.310Z,1760
2017-07-18T11:26:58.728Z,1749
2017-07-18T11:28:00.146Z,1755
2017-07-18T11:29:01.562Z,1743
2017-07-18T11:30:02.993Z,1726
2017-07-18T11:31:04.404Z,1704
2017-07-18T11:32:05.820Z,1676
2017-07-18T11:33:07.239Z,1653
2017-07-18T11:34:08.721Z,1614
2017-07-18T11:35:10.137Z,1597
2017-07-18T11:36:11.558Z,1569
2017-07-18T11:37:12.976Z,1546
2017-07-18T11:38:14.402Z,1535
2017-07-18T11:39:15.852Z,1530
2017-07-18T11:40:17.271Z,1535
2017-07-18T11:41:18.691Z,1530
2017-07-18T11:42:20.112Z,1524
2017-07-18T11:43:21.532Z,1530
2017-07-18T11:44:22.954Z,1524
2017-07-18T11:45:24.375Z,1524
2017-07-18T11:46:25.795Z,1524
2017-07-18T11:47:27.236Z,1507
2017-07-18T11:48:28.659Z,1496
2017-07-18T11:49:30.079Z,1496
2017-07-18T11:50:31.504Z,1468
2017-07-18T11:51:32.922Z,1440
2017-07-18T11:52:34.341Z,1389
2017-07-18T11:53:35.769Z,1423
2017-07-18T11:54:37.187Z,1434
2017-07-18T11:55:38.609Z,1445
2017-07-18T11:56:40.030Z,1423
2017-07-18T11:57:41.464Z,1395
2017-07-18T11:58:42.883Z,1400
2017-07-18T11:59:44.333Z,1395
2017-07-18T12:00:45.758Z,1389
2017-07-18T12:01:47.178Z,1395
2017-07-18T12:02:48.616Z,1344
2017-07-18T12:03:50.035Z,1321
2017-07-18T12:04:51.456Z,1271
2017-07-18T12:05:52.900Z,1293
2017-07-18T12:06:54.319Z,1316
2017-07-18T12:07:55.738Z,1321
2017-07-18T12:08:57.152Z,1299
2017-07-18T12:09:58.572Z,1215
2017-07-18T12:10:59.989Z,1271
2017-07-18T12:12:01.413Z,1310
2017-07-18T12:13:02.839Z,1299
2017-07-18T12:14:04.254Z,1310
2017-07-18T12:15:05.735Z,1316
2017-07-18T12:16:07.154Z,1305
2017-07-18T12:17:08.575Z,1293
2017-07-18T12:18:10.029Z,1299
2017-07-18T12:19:11.453Z,1305
2017-07-18T12:20:12.887Z,1327
2017-07-18T12:21:14.310Z,1344
2017-07-18T12:22:15.726Z,1355
2017-07-18T12:23:17.145Z,1361
2017-07-18T12:24:18.574Z,1361
2017-07-18T12:25:19.988Z,1355
2017-07-18T12:26:21.406Z,1361
2017-07-18T12:27:22.827Z,1366
2017-07-18T12:28:24.245Z,1366
2017-07-18T12:29:25.668Z,1350
2017-07-18T12:30:27.086Z,1338
2017-07-18T12:31:28.510Z,1327
2017-07-18T12:32:29.931Z,1305
2017-07-18T12:33:31.347Z,1310
2017-07-18T12:34:32.791Z,1333
2017-07-18T12:35:34.189Z,1344
2017-07-18T12:36:35.609Z,1333
2017-07-18T12:37:37.028Z,1310
2017-07-18T12:38:38.459Z,1316
2017-07-18T12:39:39.878Z,1305
2017-07-18T12:40:41.349Z,1305
2017-07-18T12:41:42.772Z,1299
2017-07-18T12:42:44.187Z,1293
2017-07-18T12:43:45.604Z,1260
2017-07-18T12:44:47.026Z,1260
2017-07-18T12:45:48.443Z,1288
2017-07-18T12:46:49.861Z,1091
2017-07-18T12:47:51.287Z,1147
2017-07-18T12:48:52.711Z,1186
2017-07-18T12:49:54.128Z,1136
2017-07-18T12:50:55.545Z,1130
2017-07-18T12:51:56.963Z,1096
2017-07-18T12:52:58.383Z,1186
2017-07-18T12:53:59.803Z,1186
2017-07-18T12:55:01.239Z,1220
2017-07-18T12:56:02.649Z,1203
2017-07-18T12:57:04.067Z,1237
2017-07-18T12:58:05.488Z,1226
2017-07-18T12:59:06.906Z,1209
2017-07-18T13:00:08.326Z,1265
2017-07-18T13:01:09.753Z,1276
2017-07-18T13:02:11.172Z,1260
2017-07-18T13:03:12.595Z,1164
2017-07-18T13:04:14.015Z,1271
2017-07-18T13:05:15.433Z,1288
2017-07-18T13:06:16.852Z,1153
2017-07-18T13:07:18.277Z,1310
2017-07-18T13:08:19.695Z,1350
2017-07-18T13:09:21.119Z,1366
2017-07-18T13:10:22.544Z,1395
2017-07-18T13:11:23.961Z,1333
2017-07-18T13:12:25.379Z,1203
2017-07-18T13:13:26.797Z,1051
2017-07-18T13:14:28.223Z,1288
2017-07-18T13:15:29.643Z,1440
2017-07-18T13:16:31.066Z,1428
2017-07-18T13:17:32.490Z,1428
2017-07-18T13:18:33.911Z,1417
2017-07-18T13:19:35.332Z,1411
2017-07-18T13:20:36.754Z,1400
2017-07-18T13:21:38.181Z,1389
2017-07-18T13:22:39.599Z,1378
2017-07-18T13:23:41.027Z,1383
2017-07-18T13:24:42.448Z,1395
2017-07-18T13:25:43.866Z,1378
2017-07-18T13:26:45.355Z,1361
2017-07-18T13:27:46.755Z,1361
2017-07-18T13:28:48.182Z,1338
2017-07-18T13:29:49.604Z,1175
2017-07-18T13:30:51.143Z,1175
2017-07-18T13:31:52.569Z,1175
2017-07-18T13:32:53.987Z,1265
2017-07-18T13:33:55.408Z,1344
2017-07-18T13:34:57.486Z,1344
2017-07-18T13:35:58.843Z,1344
2017-07-18T13:37:00.277Z,1293
2017-07-18T13:38:01.706Z,1310
2017-07-18T13:39:03.148Z,1344
2017-07-18T13:40:04.550Z,1338
2017-07-18T13:41:05.976Z,1344
2017-07-18T13:42:07.396Z,1192
2017-07-18T13:43:08.819Z,1316
2017-07-18T13:44:10.246Z,1327
2017-07-18T13:45:11.669Z,1344
2017-07-18T13:46:13.095Z,1361
2017-07-18T13:47:14.524Z,1327
2017-07-18T13:48:15.945Z,1299
2017-07-18T13:49:17.369Z,1350
2017-07-18T13:50:18.809Z,1350
2017-07-18T13:51:20.228Z,1316
2017-07-18T13:52:21.651Z,1293
2017-07-18T13:53:23.089Z,1305
2017-07-18T13:54:24.507Z,1243
2017-07-18T13:55:25.934Z,1260
2017-07-18T13:56:27.366Z,1231
2017-07-18T13:57:28.787Z,1237
2017-07-18T13:58:30.207Z,1226
2017-07-18T13:59:31.671Z,1192
2017-07-18T14:00:33.092Z,1147
2017-07-18T14:01:34.514Z,1164
2017-07-18T14:02:35.942Z,1158
2017-07-18T14:03:37.360Z,1108
2017-07-18T14:04:38.780Z,1125
2017-07-18T14:05:40.201Z,1130
2017-07-18T14:06:42.236Z,1164
2017-07-18T14:07:43.658Z,1158
2017-07-18T14:08:45.081Z,933
2017-07-18T14:09:46.501Z,1051
2017-07-18T14:10:47.918Z,1130
2017-07-18T14:11:49.342Z,1096
2017-07-18T14:12:50.763Z,1091
2017-07-18T14:13:52.185Z,1068
2017-07-18T14:14:53.613Z,1068
2017-07-18T14:15:55.040Z,1035
2017-07-18T14:16:56.457Z,922
2017-07-18T14:17:57.875Z,877
2017-07-18T14:18:59.292Z,967
2017-07-18T14:20:00.715Z,1001
2017-07-18T14:21:02.137Z,1006
2017-07-18T14:22:03.566Z,1006
2017-07-18T14:23:04.988Z,950